Time;durP1;ratioP1;P1;durP2;ratioP2;P2;SDS_P1;SDS_P2;PMS_P1;PMS_P2;Temp;Humidity;BMP_temperature;BMP_pressure;BME280_temperature;BME280_humidity;BME280_pressure;Samples;Min_cycle;Max_cycle;Signal;HPM_P1;HPM_P2
2022/04/07 00:00:19;;;;;;;3.35;1.67;;;;;;;8.08;100.00;98387.97;5068198;28;20799;-59
2022/04/07 00:02:45;;;;;;;2.70;1.35;;;;;;;8.30;100.00;98410.81;5068594;28;20024;-59
2022/04/07 00:05:11;;;;;;;7.63;2.08;;;;;;;8.24;100.00;98385.09;5069199;28;20039;-59
2022/04/07 00:07:36;;;;;;;2.78;1.45;;;;;;;8.39;100.00;98388.38;5067551;28;20313;-59
2022/04/07 00:10:03;;;;;;;3.33;1.40;;;;;;;8.49;100.00;98405.06;5067771;28;20066;-59
2022/04/07 00:12:29;;;;;;;5.00;1.77;;;;;;;8.49;100.00;98395.44;5068094;28;20939;-59
2022/04/07 00:14:54;;;;;;;2.55;1.55;;;;;;;8.46;100.00;98397.44;5069256;28;20024;-59
2022/04/07 00:17:20;;;;;;;5.13;1.67;;;;;;;8.25;100.00;98370.22;5068483;28;20845;-59
2022/04/07 00:19:45;;;;;;;13.50;1.58;;;;;;;8.41;100.00;98392.56;5067808;28;20872;-59
2022/04/07 00:22:11;;;;;;;4.82;1.38;;;;;;;8.33;100.00;98354.81;5067379;28;20951;-59
2022/04/07 00:24:36;;;;;;;2.97;1.27;;;;;;;8.48;100.00;98385.09;5050649;28;20024;-59
2022/04/07 00:27:01;;;;;;;3.25;1.40;;;;;;;8.39;100.00;98378.75;5067167;28;20035;-59
2022/04/07 00:29:27;;;;;;;5.47;1.40;;;;;;;8.53;100.00;98378.56;5067129;28;20761;-59
2022/04/07 00:32:05;;;;;;;3.78;1.20;;;;;;;8.66;100.00;98379.31;5049494;28;20027;-59
2022/04/07 00:34:31;;;;;;;7.20;2.03;;;;;;;8.66;100.00;98355.75;5069128;28;20061;-59
2022/04/07 00:36:56;;;;;;;3.95;1.65;;;;;;;8.65;100.00;98374.22;5049252;28;20142;-59
2022/04/07 00:39:21;;;;;;;5.65;1.80;;;;;;;8.69;100.00;98349.44;5067075;28;20051;-59
2022/04/07 00:41:47;;;;;;;6.18;1.88;;;;;;;8.80;100.00;98367.81;5066573;28;20904;-59
2022/04/07 00:44:12;;;;;;;5.28;1.55;;;;;;;8.69;100.00;98342.44;5065871;28;20134;-59
2022/04/07 00:46:39;;;;;;;3.35;1.45;;;;;;;8.81;100.00;98345.91;5066015;28;20034;-58
2022/04/07 00:49:05;;;;;;;3.58;1.25;;;;;;;8.86;100.00;98333.28;5066807;28;20088;-59
2022/04/07 00:51:31;;;;;;;2.63;1.20;;;;;;;8.83;100.00;98338.75;5065917;28;20060;-58
2022/04/07 00:53:57;;;;;;;5.32;1.23;;;;;;;8.98;100.00;98337.59;5066365;28;20028;-58
2022/04/07 00:56:23;;;;;;;3.33;1.35;;;;;;;9.03;100.00;98340.69;5066128;28;20030;-59
2022/04/07 00:58:49;;;;;;;4.90;1.48;;;;;;;9.03;100.00;98337.25;5066089;28;20090;-59
2022/04/07 01:01:17;;;;;;;3.13;1.40;;;;;;;8.71;100.00;98269.84;5067337;28;20865;-59
2022/04/07 01:03:43;;;;;;;4.22;1.35;;;;;;;8.84;100.00;98301.16;5065689;28;20032;-58
2022/04/07 01:06:08;;;;;;;2.95;1.55;;;;;;;8.95;100.00;98309.03;5066724;28;20930;-58
2022/04/07 01:08:34;;;;;;;3.72;1.02;;;;;;;8.96;100.00;98310.69;5050123;28;20930;-58
2022/04/07 01:11:00;;;;;;;2.90;1.30;;;;;;;8.97;100.00;98309.75;5066751;28;20823;-59
2022/04/07 01:13:42;;;;;;;3.90;1.88;;;;;;;9.04;100.00;98303.06;5066094;28;20028;-59
2022/04/07 01:16:08;;;;;;;3.97;1.65;;;;;;;9.00;100.00;98287.72;5050527;28;20921;-59
2022/04/07 01:18:33;;;;;;;6.68;1.95;;;;;;;8.93;100.00;98304.84;5065361;28;20028;-59
2022/04/07 01:20:59;;;;;;;5.05;1.98;;;;;;;8.67;100.00;98305.06;5064995;28;20023;-59
2022/04/07 01:23:26;;;;;;;3.13;1.50;;;;;;;8.47;100.00;98297.06;5065971;28;20030;-59
2022/04/07 01:25:53;;;;;;;5.50;2.17;;;;;;;8.33;100.00;98284.16;5047189;28;20024;-59
2022/04/07 01:28:18;;;;;;;4.80;1.92;;;;;;;8.23;100.00;98287.44;5065320;28;20035;-59
2022/04/07 01:30:43;;;;;;;4.28;2.10;;;;;;;8.16;100.00;98277.56;5065542;28;20423;-59
2022/04/07 01:33:09;;;;;;;6.40;2.22;;;;;;;8.14;100.00;98272.41;5065494;28;20060;-61
2022/04/07 01:35:35;;;;;;;5.10;2.75;;;;;;;8.03;100.00;98275.03;5065557;28;20856;-59
2022/04/07 01:38:01;;;;;;;5.35;2.50;;;;;;;7.92;100.00;98264.50;5064991;28;20966;-59
2022/04/07 01:40:30;;;;;;;3.97;2.22;;;;;;;7.92;100.00;98246.19;5065302;28;20034;-59
2022/04/07 01:42:55;;;;;;;4.10;2.08;;;;;;;7.81;100.00;98220.00;5065372;28;20023;-59
2022/04/07 01:45:21;;;;;;;4.43;2.22;;;;;;;8.16;100.00;98251.41;5065480;28;20027;-59
2022/04/07 01:47:47;;;;;;;4.13;2.20;;;;;;;8.29;100.00;98249.56;5047223;28;20027;-59
2022/04/07 01:50:15;;;;;;;9.55;2.92;;;;;;;8.02;100.00;98197.50;5048706;28;20035;-59
2022/04/07 01:52:41;;;;;;;4.75;2.53;;;;;;;8.28;100.00;98223.50;5046701;28;20031;-59
2022/04/07 01:55:07;;;;;;;4.68;2.17;;;;;;;8.26;100.00;98230.59;5051891;28;20031;-59
2022/04/07 01:57:33;;;;;;;3.08;1.98;;;;;;;8.18;100.00;98218.94;5065998;28;20081;-59
2022/04/07 01:59:59;;;;;;;3.78;2.03;;;;;;;8.25;100.00;98244.66;5066950;28;20035;-59
2022/04/07 02:02:25;;;;;;;4.85;2.17;;;;;;;8.26;100.00;98230.59;5032517;28;20032;-59
2022/04/07 02:04:53;;;;;;;9.10;2.17;;;;;;;8.21;100.00;98223.94;5065802;28;20031;-59
2022/04/07 02:07:19;;;;;;;6.22;2.15;;;;;;;8.19;100.00;98202.28;5065385;28;20943;-58
2022/04/07 02:09:44;;;;;;;4.60;2.50;;;;;;;8.45;100.00;98210.81;5065981;28;20059;-59
2022/04/07 02:12:10;;;;;;;4.05;2.00;;;;;;;8.47;100.00;98218.53;5066277;28;20027;-59
2022/04/07 02:14:35;;;;;;;14.48;2.42;;;;;;;8.62;100.00;98206.88;5065193;28;20047;-59
2022/04/07 02:17:01;;;;;;;8.70;2.17;;;;;;;8.58;100.00;98189.78;5047853;28;20895;-59
2022/04/07 02:19:26;;;;;;;4.60;2.15;;;;;;;8.69;100.00;98192.38;5045200;28;20032;-59
2022/04/07 02:21:52;;;;;;;5.45;2.22;;;;;;;8.75;100.00;98186.69;5046263;28;20024;-59
2022/04/07 02:24:17;;;;;;;3.65;1.70;;;;;;;8.69;100.00;98171.41;5044678;28;20032;-59
2022/04/07 02:26:43;;;;;;;4.45;1.58;;;;;;;8.77;100.00;98174.28;5044886;28;20047;-59
2022/04/07 02:29:08;;;;;;;4.30;1.50;;;;;;;8.83;100.00;98181.66;5044636;28;20032;-59
2022/04/07 02:31:33;;;;;;;5.45;2.30;;;;;;;8.74;100.00;98143.13;5045012;28;20120;-59
2022/04/07 02:33:59;;;;;;;6.53;1.77;;;;;;;9.03;100.00;98178.28;5048572;28;20962;-59
2022/04/07 02:36:24;;;;;;;5.40;1.90;;;;;;;9.07;100.00;98169.25;5049429;28;20032;-59
2022/04/07 02:38:50;;;;;;;8.75;2.17;;;;;;;9.07;100.00;98150.91;5048948;28;20138;-59
2022/04/07 02:41:15;;;;;;;4.57;1.77;;;;;;;8.96;100.00;98143.06;5048301;28;20058;-59
2022/04/07 02:43:40;;;;;;;4.50;1.80;;;;;;;9.03;100.00;98128.53;5048925;28;20097;-59
2022/04/07 02:46:06;;;;;;;8.25;2.10;;;;;;;9.06;100.00;98146.59;5048014;28;20031;-59
2022/04/07 02:48:31;;;;;;;4.13;1.70;;;;;;;9.04;100.00;98140.69;5048299;28;20203;-59
2022/04/07 02:50:57;;;;;;;3.95;1.95;;;;;;;8.95;100.00;98115.22;5048580;28;20032;-59
2022/04/07 02:53:22;;;;;;;4.93;2.03;;;;;;;8.89;100.00;98107.03;5048835;28;20127;-59
2022/04/07 02:55:47;;;;;;;3.45;1.60;;;;;;;8.83;100.00;98105.72;5049533;28;20814;-59
2022/04/07 02:58:13;;;;;;;4.05;1.95;;;;;;;8.95;100.00;98109.16;5048212;28;20551;-59
2022/04/07 03:00:39;;;;;;;5.60;2.30;;;;;;;9.02;100.00;98121.63;5047808;28;20026;-60
2022/04/07 03:03:04;;;;;;;7.40;1.77;;;;;;;9.05;100.00;98116.16;5047586;28;20903;-59
2022/04/07 03:05:29;;;;;;;9.00;2.60;;;;;;;8.99;100.00;98106.16;5047486;28;20143;-59
2022/04/07 03:07:55;;;;;;;6.38;2.13;;;;;;;8.97;100.00;98081.88;5030036;28;20853;-59
2022/04/07 03:10:21;;;;;;;3.53;1.63;;;;;;;9.14;100.00;98094.44;5048022;28;20028;-59
2022/04/07 03:12:46;;;;;;;3.67;1.45;;;;;;;9.13;100.00;98084.91;5047870;28;20023;-59
2022/04/07 03:15:11;;;;;;;6.15;1.83;;;;;;;9.19;100.00;98083.59;5049320;28;20101;-59
2022/04/07 03:17:37;;;;;;;6.82;2.20;;;;;;;9.10;100.00;98084.31;5049086;28;20043;-59
2022/04/07 03:20:02;;;;;;;5.53;1.58;;;;;;;9.10;100.00;98086.94;5049000;28;20035;-59
2022/04/07 03:22:28;;;;;;;4.75;1.50;;;;;;;9.09;100.00;98088.72;5047335;28;20129;-59
2022/04/07 03:24:53;;;;;;;7.00;1.90;;;;;;;9.18;100.00;98079.31;5047488;28;20046;-59
2022/04/07 03:27:19;;;;;;;3.88;1.58;;;;;;;9.19;100.00;98076.53;5047904;28;20949;-61
2022/04/07 03:29:44;;;;;;;4.57;1.80;;;;;;;9.18;100.00;98050.50;5030278;28;20813;-59
2022/04/07 03:32:10;;;;;;;4.72;2.00;;;;;;;9.24;100.00;98053.44;5048527;28;20032;-59
2022/04/07 03:34:39;;;;;;;4.20;1.77;;;;;;;9.30;100.00;98049.47;5049203;28;20031;-59
2022/04/07 03:37:05;;;;;;;4.10;1.60;;;;;;;9.28;100.00;98047.94;5050055;28;20036;-59
2022/04/07 03:39:32;;;;;;;7.72;2.15;;;;;;;9.09;100.00;98048.63;5029428;28;20034;-59
2022/04/07 03:41:57;;;;;;;4.88;2.00;;;;;;;8.71;100.00;98023.78;5047343;28;20105;-59
2022/04/07 03:44:23;;;;;;;3.33;1.63;;;;;;;8.55;100.00;98035.59;5046113;28;20920;-59
2022/04/07 03:46:48;;;;;;;5.47;2.30;;;;;;;8.37;100.00;98023.97;5030104;28;20078;-60
2022/04/07 03:49:13;;;;;;;5.85;2.17;;;;;;;8.26;100.00;98022.16;5046883;28;20867;-60
2022/04/07 03:51:39;;;;;;;6.28;2.08;;;;;;;8.17;100.00;98000.19;5046937;28;20053;-59
2022/04/07 03:54:04;;;;;;;6.90;2.65;;;;;;;8.15;100.00;98011.69;5047006;28;20031;-60
2022/04/07 03:56:30;;;;;;;6.78;2.88;;;;;;;8.09;100.00;98010.41;5028992;28;20927;-59
2022/04/07 03:58:56;;;;;;;4.40;2.40;;;;;;;8.11;100.00;98012.91;5047292;28;20947;-59
2022/04/07 04:01:21;;;;;;;3.97;2.13;;;;;;;8.11;100.00;98007.69;5046761;28;20028;-59
2022/04/07 04:03:46;;;;;;;6.22;2.80;;;;;;;8.12;100.00;97991.84;5046696;28;20028;-59
2022/04/07 04:06:12;;;;;;;6.72;2.67;;;;;;;8.09;100.00;97983.41;5046752;28;20066;-59
2022/04/07 04:08:37;;;;;;;7.47;3.25;;;;;;;8.04;100.00;97964.66;5046785;28;20078;-59
2022/04/07 04:11:03;;;;;;;8.90;2.97;;;;;;;8.03;100.00;97963.00;5047469;28;20024;-60
2022/04/07 04:13:29;;;;;;;6.85;3.42;;;;;;;8.09;100.00;97959.88;5046294;28;20087;-60
2022/04/07 04:15:55;;;;;;;9.68;3.85;;;;;;;8.07;100.00;97960.03;5046636;28;20102;-60
2022/04/07 04:18:21;;;;;;;8.30;4.10;;;;;;;8.04;100.00;97948.97;5048018;28;20031;-59
2022/04/07 04:20:46;;;;;;;7.80;3.65;;;;;;;8.02;100.00;97930.78;5047167;28;20152;-59
2022/04/07 04:23:11;;;;;;;6.97;3.58;;;;;;;8.06;100.00;97947.06;5046552;28;20794;-60
2022/04/07 04:25:37;;;;;;;5.72;3.63;;;;;;;7.95;100.00;97920.91;5046622;28;20114;-59
2022/04/07 04:28:02;;;;;;;5.57;3.80;;;;;;;8.04;100.00;97936.69;5046406;28;20073;-60
2022/04/07 04:30:28;;;;;;;8.15;4.00;;;;;;;7.97;100.00;97912.03;5047215;28;20846;-59
2022/04/07 04:32:53;;;;;;;7.30;3.92;;;;;;;7.85;100.00;97901.69;5048215;28;20028;-59
2022/04/07 04:35:19;;;;;;;8.18;4.20;;;;;;;7.98;100.00;97913.66;5047253;28;20885;-59
2022/04/07 04:37:44;;;;;;;9.73;3.97;;;;;;;7.83;100.00;97870.44;5048176;28;20085;-58
2022/04/07 04:40:10;;;;;;;7.75;4.47;;;;;;;7.95;100.00;97885.16;5046704;28;20040;-59
2022/04/07 04:42:35;;;;;;;9.77;3.28;;;;;;;8.02;100.00;97886.31;5046043;28;20072;-59
2022/04/07 04:45:01;;;;;;;5.55;2.80;;;;;;;7.98;100.00;97887.50;5045773;28;20039;-59
2022/04/07 04:47:26;;;;;;;9.02;3.33;;;;;;;8.03;100.00;97876.69;5047001;28;20028;-59
2022/04/07 04:49:52;;;;;;;6.15;3.22;;;;;;;7.90;100.00;97845.47;5045486;28;20882;-59
2022/04/07 04:52:17;;;;;;;7.60;3.13;;;;;;;8.09;100.00;97870.97;5044634;28;20132;-59
2022/04/07 04:54:42;;;;;;;5.00;2.90;;;;;;;8.10;100.00;97868.25;5044662;28;20032;-59
2022/04/07 04:57:08;;;;;;;11.93;3.60;;;;;;;8.10;100.00;97846.50;5047040;28;20798;-59
2022/04/07 04:59:34;;;;;;;6.60;3.15;;;;;;;8.10;100.00;97855.16;5045253;28;20020;-59
2022/04/07 05:01:59;;;;;;;6.43;2.83;;;;;;;7.89;100.00;97815.06;5045522;28;20086;-59
2022/04/07 05:04:24;;;;;;;5.05;2.33;;;;;;;8.09;100.00;97853.50;5045616;28;20028;-59
2022/04/07 05:06:50;;;;;;;4.57;2.65;;;;;;;8.08;100.00;97840.53;5046750;28;20043;-59
2022/04/07 05:09:15;;;;;;;6.50;2.38;;;;;;;8.14;100.00;97846.09;5045877;28;20043;-59
2022/04/07 05:11:41;;;;;;;4.40;2.47;;;;;;;8.15;100.00;97847.75;5027457;28;20032;-59
2022/04/07 05:14:06;;;;;;;10.30;3.13;;;;;;;8.12;100.00;97847.19;5045620;28;20024;-59
2022/04/07 05:16:32;;;;;;;6.35;2.90;;;;;;;8.09;100.00;97837.81;5027729;28;20086;-59
2022/04/07 05:18:57;;;;;;;5.65;2.95;;;;;;;8.08;100.00;97846.59;5045264;28;21095;-59
2022/04/07 05:21:23;;;;;;;4.40;2.33;;;;;;;8.07;100.00;97834.50;5046866;28;20939;-59
2022/04/07 05:23:48;;;;;;;6.80;2.78;;;;;;;8.05;100.00;97833.78;5044769;28;20060;-59
2022/04/07 05:26:13;;;;;;;8.63;2.92;;;;;;;8.06;100.00;97838.06;5045351;28;20032;-60
2022/04/07 05:28:39;;;;;;;13.73;3.05;;;;;;;8.06;100.00;97830.22;5045699;28;20055;-59
2022/04/07 05:31:05;;;;;;;6.75;3.25;;;;;;;8.02;100.00;97831.41;5044399;28;20140;-59
2022/04/07 05:33:30;;;;;;;7.45;2.97;;;;;;;8.01;100.00;97819.28;5045515;28;20070;-59
2022/04/07 05:35:56;;;;;;;5.93;3.05;;;;;;;7.94;100.00;97823.34;5046015;28;20059;-59
2022/04/07 05:38:21;;;;;;;9.60;2.60;;;;;;;7.95;100.00;97809.31;5045739;28;20869;-59
2022/04/07 05:40:47;;;;;;;6.80;2.83;;;;;;;7.90;100.00;97800.19;5044506;28;20888;-59
2022/04/07 05:43:12;;;;;;;6.10;3.00;;;;;;;7.74;100.00;97769.22;5046217;28;20035;-59
2022/04/07 05:45:39;;;;;;;7.28;2.72;;;;;;;7.79;100.00;97777.53;5045964;28;20059;-59
2022/04/07 05:48:04;;;;;;;11.57;2.90;;;;;;;7.81;100.00;97770.41;5046214;28;20028;-59
2022/04/07 05:50:30;;;;;;;6.30;2.10;;;;;;;7.78;100.00;97759.34;5045882;28;20027;-59
2022/04/07 05:52:55;;;;;;;5.50;2.30;;;;;;;7.80;100.00;97736.56;5047870;28;20024;-59
2022/04/07 05:55:20;;;;;;;4.28;1.83;;;;;;;7.82;100.00;97738.09;5046750;28;20035;-59
2022/04/07 05:57:46;;;;;;;5.97;2.33;;;;;;;7.96;100.00;97729.94;5047859;28;20023;-59
2022/04/07 06:00:13;;;;;;;3.22;1.60;;;;;;;8.03;100.00;97720.63;5046120;28;20567;-59
2022/04/07 06:02:39;;;;;;;3.90;1.70;;;;;;;7.98;100.00;97709.72;5046943;28;20032;-59
2022/04/07 06:05:06;;;;;;;4.18;1.58;;;;;;;7.98;100.00;97688.81;5046624;28;20028;-59
2022/04/07 06:07:32;;;;;;;4.70;1.77;;;;;;;7.72;100.00;97650.94;5048268;28;20455;-59
2022/04/07 06:09:57;;;;;;;2.85;1.35;;;;;;;8.09;100.00;97696.59;5050308;28;20060;-59
2022/04/07 06:12:22;;;;;;;6.18;1.73;;;;;;;8.09;100.00;97690.53;5050512;28;20032;-59
2022/04/07 06:14:48;;;;;;;4.00;1.58;;;;;;;7.95;100.00;97641.16;5050119;28;20040;-59
2022/04/07 06:17:13;;;;;;;6.47;1.08;;;;;;;8.17;100.00;97654.94;5050449;28;20032;-59
2022/04/07 06:19:39;;;;;;;4.75;1.38;;;;;;;8.16;100.00;97649.81;5049507;28;20839;-59
2022/04/07 06:22:07;;;;;;;4.47;1.90;;;;;;;8.20;100.00;97666.94;5050607;28;20035;-59
2022/04/07 06:24:35;;;;;;;3.97;1.38;;;;;;;8.22;100.00;97639.69;5051222;28;20869;-59
2022/04/07 06:27:01;;;;;;;4.13;1.65;;;;;;;8.06;100.00;97607.09;5049153;28;20042;-58
2022/04/07 06:29:26;;;;;;;3.67;1.38;;;;;;;8.18;100.00;97596.44;5049871;28;20035;-60
2022/04/07 06:31:52;;;;;;;3.25;1.33;;;;;;;8.31;100.00;97613.75;5050277;28;20920;-59
2022/04/07 06:34:18;;;;;;;3.22;1.05;;;;;;;8.36;100.00;97583.59;5049186;28;20029;-59
2022/04/07 06:36:43;;;;;;;3.42;1.40;;;;;;;8.49;100.00;97584.19;5049917;28;20097;-59
2022/04/07 06:39:08;;;;;;;2.70;1.20;;;;;;;8.51;100.00;97561.34;5048589;28;20021;-59
2022/04/07 06:41:34;;;;;;;2.55;1.10;;;;;;;8.65;100.00;97570.59;5049076;28;20020;-60
2022/04/07 06:43:59;;;;;;;2.63;1.00;;;;;;;8.61;100.00;97571.84;5050032;28;20089;-59
2022/04/07 06:46:25;;;;;;;3.08;1.10;;;;;;;8.41;100.00;97517.81;5049918;28;20035;-59
2022/04/07 06:48:50;;;;;;;6.15;1.67;;;;;;;8.50;100.00;97548.38;5030496;28;20869;-59
2022/04/07 06:51:16;;;;;;;3.85;1.17;;;;;;;8.45;100.00;97534.88;5040131;28;20025;-59
2022/04/07 06:53:41;;;;;;;3.05;1.60;;;;;;;8.41;100.00;97518.63;5028061;28;20046;-59
2022/04/07 06:56:08;;;;;;;7.07;2.00;;;;;;;8.04;100.00;97450.34;5030070;28;20744;-59
2022/04/07 06:58:33;;;;;;;2.63;1.02;;;;;;;8.29;100.00;97487.47;5028331;28;20039;-59
2022/04/07 07:00:59;;;;;;;3.63;1.38;;;;;;;8.48;100.00;97509.25;5036482;28;20036;-59
2022/04/07 07:03:24;;;;;;;3.38;1.17;;;;;;;8.50;100.00;97524.84;5048638;28;20028;-59
2022/04/07 07:05:49;;;;;;;2.75;1.35;;;;;;;8.55;100.00;97509.56;5048694;28;20028;-59
2022/04/07 07:08:15;;;;;;;3.17;1.27;;;;;;;8.50;100.00;97496.06;5050310;28;20028;-59
2022/04/07 07:10:41;;;;;;;2.80;1.30;;;;;;;8.23;100.00;97453.03;5048441;28;20084;-60
2022/04/07 07:13:06;;;;;;;3.55;1.73;;;;;;;8.55;100.00;97480.78;5049779;28;20028;-59
2022/04/07 07:15:32;;;;;;;3.10;0.93;;;;;;;8.25;100.00;97439.78;5049926;28;20029;-59
2022/04/07 07:17:57;;;;;;;3.53;1.20;;;;;;;8.58;100.00;97478.69;5029608;28;20027;-59
2022/04/07 07:20:22;;;;;;;2.75;1.13;;;;;;;8.60;100.00;97455.00;5046856;28;20020;-59
2022/04/07 07:22:48;;;;;;;2.33;0.85;;;;;;;8.64;100.00;97461.63;5048972;28;20028;-59
2022/04/07 07:25:14;;;;;;;2.28;0.90;;;;;;;8.56;100.00;97461.47;5049520;28;20134;-59
2022/04/07 07:27:42;;;;;;;3.40;1.10;;;;;;;8.53;100.00;97456.53;5050105;28;20057;-59
2022/04/07 07:30:09;;;;;;;6.32;1.63;;;;;;;8.51;100.00;97455.84;5048979;28;20020;-59
2022/04/07 07:32:38;;;;;;;3.88;0.90;;;;;;;8.50;100.00;97430.63;5030276;28;20024;-59
2022/04/07 07:35:05;;;;;;;3.42;1.50;;;;;;;8.30;100.00;97397.56;5049395;28;20028;-59
2022/04/07 07:37:30;;;;;;;4.57;1.08;;;;;;;8.50;100.00;97428.00;5048393;28;20135;-59
2022/04/07 07:39:56;;;;;;;7.20;1.15;;;;;;;8.59;100.00;97419.34;5048099;28;20795;-58
2022/04/07 07:42:21;;;;;;;2.60;0.90;;;;;;;8.64;100.00;97414.53;5047282;28;20062;-59
2022/04/07 07:44:47;;;;;;;2.28;1.13;;;;;;;8.60;100.00;97389.59;5048042;28;20028;-59
2022/04/07 07:47:12;;;;;;;2.15;0.80;;;;;;;8.70;100.00;97406.13;5047650;28;20988;-59
2022/04/07 07:49:37;;;;;;;2.40;1.10;;;;;;;8.82;100.00;97405.00;5046824;28;20027;-59
2022/04/07 07:52:03;;;;;;;2.35;0.60;;;;;;;8.92;100.00;97381.44;5047457;28;20051;-59
2022/04/07 07:54:29;;;;;;;3.63;0.63;;;;;;;8.95;100.00;97375.91;5046812;28;20855;-59
2022/04/07 07:56:54;;;;;;;3.30;0.47;;;;;;;9.02;100.00;97385.66;5046599;28;20059;-59
2022/04/07 07:59:20;;;;;;;1.00;0.60;;;;;;;8.87;100.00;97347.81;5047694;28;20028;-58
2022/04/07 08:01:48;;;;;;;0.85;0.45;;;;;;;8.98;100.00;97362.53;5029226;28;20876;-59
2022/04/07 08:04:14;;;;;;;1.73;0.57;;;;;;;8.96;100.00;97370.53;5047126;28;20165;-59
2022/04/07 08:06:39;;;;;;;1.60;0.50;;;;;;;9.08;100.00;97372.03;5047096;28;20027;-59
2022/04/07 08:09:05;;;;;;;1.88;0.38;;;;;;;8.93;100.00;97317.59;5049133;28;20030;-59
2022/04/07 08:11:31;;;;;;;0.88;0.40;;;;;;;9.08;100.00;97355.47;5048880;28;20057;-59
2022/04/07 08:13:56;;;;;;;1.23;0.40;;;;;;;9.05;100.00;97348.75;5046767;28;20039;-59
2022/04/07 08:16:22;;;;;;;1.52;0.50;;;;;;;9.12;100.00;97344.59;5046448;28;20177;-59
2022/04/07 08:18:47;;;;;;;1.45;0.60;;;;;;;9.18;100.00;97349.25;5047126;28;20039;-59
2022/04/07 08:21:12;;;;;;;3.03;0.70;;;;;;;9.18;100.00;97332.69;5047366;28;20032;-59
2022/04/07 08:23:38;;;;;;;2.22;0.70;;;;;;;9.20;100.00;97331.56;5046898;28;20035;-59
2022/04/07 08:26:03;;;;;;;1.77;0.60;;;;;;;9.27;100.00;97334.44;5047253;28;20843;-59
2022/04/07 08:28:28;;;;;;;1.77;0.88;;;;;;;9.33;100.00;97348.78;5048559;28;20035;-59
2022/04/07 08:30:54;;;;;;;1.45;0.75;;;;;;;9.34;100.00;97346.00;5046769;28;20475;-59
2022/04/07 08:33:19;;;;;;;3.88;0.98;;;;;;;9.36;100.00;97351.91;5046650;28;20847;-59
2022/04/07 08:35:44;;;;;;;1.85;0.70;;;;;;;9.02;100.00;97275.66;5047098;28;20028;-59
2022/04/07 08:38:14;;;;;;;2.80;1.10;;;;;;;9.48;100.00;97336.84;5046497;28;20055;-58
2022/04/07 08:40:41;;;;;;;8.02;1.10;;;;;;;9.34;100.00;97318.97;5046407;28;20074;-58
2022/04/07 08:43:08;;;;;;;2.85;0.90;;;;;;;9.52;100.00;97349.53;5046874;28;20024;-58
2022/04/07 08:45:35;;;;;;;2.45;1.02;;;;;;;9.57;100.00;97363.00;5047044;28;20907;-59
2022/04/07 08:48:02;;;;;;;2.30;1.10;;;;;;;9.63;100.00;97351.13;5046104;28;20036;-59
2022/04/07 08:50:27;;;;;;;2.38;1.08;;;;;;;9.64;100.00;97353.59;5046224;28;20877;-59
2022/04/07 08:52:53;;;;;;;1.88;0.93;;;;;;;9.59;100.00;97340.09;5045688;28;20082;-58
2022/04/07 08:55:19;;;;;;;4.82;1.35;;;;;;;9.61;100.00;97353.88;5046047;28;20987;-59
2022/04/07 08:57:44;;;;;;;2.42;1.20;;;;;;;9.62;100.00;97352.91;5048144;28;20031;-58
2022/04/07 09:00:10;;;;;;;4.00;1.65;;;;;;;9.73;100.00;97354.53;5046206;28;20028;-59
2022/04/07 09:02:35;;;;;;;3.55;1.80;;;;;;;9.80;100.00;97341.66;5046147;28;20975;-59
2022/04/07 09:05:02;;;;;;;5.93;2.00;;;;;;;9.88;100.00;97374.00;5045353;28;20028;-59
2022/04/07 09:07:31;;;;;;;3.17;1.98;;;;;;;9.88;100.00;97397.63;5048044;28;20020;-59
2022/04/07 09:09:59;;;;;;;9.77;2.50;;;;;;;9.83;100.00;97414.78;5047420;28;20024;-60
2022/04/07 09:12:25;;;;;;;3.20;1.50;;;;;;;9.61;100.00;97376.63;5045809;28;20035;-63
2022/04/07 09:14:58;;;;;;;1.75;0.80;;;;;;;9.75;100.00;97403.22;5028460;28;20032;-62
2022/04/07 09:17:24;;;;;;;2.63;1.10;;;;;;;9.67;100.00;97399.66;5044636;28;20043;-62
2022/04/07 09:19:50;;;;;;;3.97;0.85;;;;;;;9.65;100.00;97404.22;5046577;28;20241;-62
2022/04/07 09:22:15;;;;;;;1.98;0.80;;;;;;;9.66;100.00;97400.63;5046200;28;20561;-62
2022/04/07 09:24:42;;;;;;;1.85;0.88;;;;;;;9.61;100.00;97405.47;5046275;28;20020;-61
2022/04/07 09:27:10;;;;;;;2.20;1.05;;;;;;;9.60;100.00;97406.44;5045616;28;20032;-61
2022/04/07 09:29:46;;;;;;;5.78;1.00;;;;;;;9.62;100.00;97417.63;5046537;28;20028;-61
2022/04/07 09:32:22;;;;;;;1.80;0.82;;;;;;;9.54;100.00;97414.88;5045207;28;20042;-61
2022/04/07 09:34:52;;;;;;;2.30;1.00;;;;;;;9.51;100.00;97420.41;5045684;28;20039;-61
2022/04/07 09:37:20;;;;;;;2.30;0.85;;;;;;;9.60;100.00;97419.53;5044706;28;20126;-61
2022/04/07 09:39:45;;;;;;;3.70;1.00;;;;;;;9.68;100.00;97415.25;5043480;28;20024;-61
2022/04/07 09:42:27;;;;;;;6.28;1.70;;;;;;;9.71;100.00;97433.31;5046353;28;20822;-61
2022/04/07 09:44:59;;;;;;;3.92;1.02;;;;;;;9.61;100.00;97440.38;5045205;28;20036;-62
2022/04/07 09:47:36;;;;;;;2.38;0.85;;;;;;;9.54;100.00;97436.69;5044911;28;20028;-62
2022/04/07 09:50:02;;;;;;;2.75;1.00;;;;;;;9.39;100.00;97437.28;5046549;28;20039;-61
2022/04/07 09:52:28;;;;;;;2.08;0.57;;;;;;;9.28;100.00;97419.09;5045791;28;20061;-61
2022/04/07 09:55:04;;;;;;;1.10;0.40;;;;;;;9.45;100.00;97436.72;5046140;28;20024;-61
2022/04/07 09:57:30;;;;;;;3.35;1.10;;;;;;;9.73;100.00;97441.03;5044660;28;20337;-60
2022/04/07 09:59:56;;;;;;;1.80;0.65;;;;;;;10.10;100.00;97447.06;5044919;28;20027;-61
2022/04/07 10:02:22;;;;;;;1.50;0.50;;;;;;;10.22;100.00;97448.53;5044263;28;20166;-61
2022/04/07 10:04:47;;;;;;;3.95;1.02;;;;;;;10.36;100.00;97443.75;5045135;28;20035;-60
2022/04/07 10:07:13;;;;;;;0.98;0.40;;;;;;;10.62;100.00;97457.78;5045059;28;20028;-61
2022/04/07 10:09:41;;;;;;;0.70;0.35;;;;;;;10.95;100.00;97451.84;5045907;28;20939;-61
2022/04/07 10:12:09;;;;;;;5.25;0.90;;;;;;;11.00;100.00;97460.13;5046221;28;20029;-61
2022/04/07 10:14:34;;;;;;;2.17;0.55;;;;;;;10.37;100.00;97403.44;5045123;28;20039;-61
2022/04/07 10:17:00;;;;;;;0.88;0.50;;;;;;;10.79;100.00;97454.34;5026670;28;20052;-60
2022/04/07 10:19:46;;;;;;;2.03;0.60;;;;;;;11.03;100.00;97459.81;5042265;28;20877;-61
2022/04/07 10:22:26;;;;;;;2.53;0.45;;;;;;;11.10;100.00;97465.28;5024954;28;20060;-60
2022/04/07 10:24:55;;;;;;;1.10;0.45;;;;;;;10.88;100.00;97437.72;5024692;28;20899;-61
2022/04/07 10:27:23;;;;;;;1.45;0.50;;;;;;;11.09;100.00;97477.59;5025649;28;20063;-61
2022/04/07 10:30:10;;;;;;;2.42;0.70;;;;;;;11.14;100.00;97462.22;5026794;28;20059;-61
2022/04/07 10:32:47;;;;;;;0.90;0.30;;;;;;;11.13;100.00;97475.50;5024805;28;20043;-61
2022/04/07 10:35:36;;;;;;;3.05;0.68;;;;;;;11.15;100.00;97495.38;5025231;28;20090;-61
2022/04/07 10:38:10;;;;;;;1.55;0.70;;;;;;;11.11;100.00;97483.53;5000066;28;20059;-61
2022/04/07 10:40:50;;;;;;;2.35;0.70;;;;;;;11.17;100.00;97508.38;5025491;28;20118;-60
2022/04/07 10:43:22;;;;;;;1.90;0.60;;;;;;;11.15;100.00;97513.78;5024700;28;20039;-61
2022/04/07 10:46:08;;;;;;;1.40;0.30;;;;;;;11.15;100.00;97490.13;5026877;28;20936;-61
2022/04/07 10:48:35;;;;;;;2.15;0.73;;;;;;;11.35;100.00;97497.84;5024997;28;20033;-61
2022/04/07 10:51:01;;;;;;;2.83;0.47;;;;;;;11.41;100.00;97510.38;5008190;28;20052;-60
2022/04/07 10:53:33;;;;;;;2.60;0.65;;;;;;;11.38;100.00;97495.75;5027112;28;20227;-61
2022/04/07 10:56:05;;;;;;;3.47;0.77;;;;;;;11.28;100.00;97474.81;4997300;28;20845;-61
2022/04/07 10:58:42;;;;;;;1.63;0.60;;;;;;;11.54;100.00;97510.78;5030440;28;20048;-60
2022/04/07 11:01:30;;;;;;;3.53;0.85;;;;;;;11.61;100.00;97527.63;5041468;28;20078;-60
2022/04/07 11:07:02;;;;;;;1.90;0.52;;;;;;;11.94;100.00;97526.88;5049524;28;20036;-61
2022/04/07 11:09:39;;;;;;;1.75;0.70;;;;;;;12.07;100.00;97482.53;5049817;28;20024;-61
2022/04/07 11:12:09;;;;;;;3.45;0.60;;;;;;;12.00;100.00;97476.22;5047627;28;20028;-61
2022/04/07 11:14:35;;;;;;;3.22;0.88;;;;;;;12.33;100.00;97507.97;5049503;28;20442;-61
2022/04/07 11:17:02;;;;;;;4.05;1.40;;;;;;;12.52;100.00;97519.06;5048006;28;20273;-61
2022/04/07 11:19:51;;;;;;;2.35;0.90;;;;;;;12.78;100.00;97530.31;5048091;28;20900;-61
2022/04/07 11:22:19;;;;;;;2.47;1.00;;;;;;;12.94;100.00;97521.66;5032246;28;20021;-61
2022/04/07 11:24:45;;;;;;;4.25;1.23;;;;;;;12.91;100.00;97524.59;5047371;28;20028;-61
2022/04/07 11:27:35;;;;;;;3.53;1.40;;;;;;;13.20;100.00;97524.16;5031595;28;20143;-61
2022/04/07 11:30:03;;;;;;;3.20;1.25;;;;;;;12.86;100.00;97529.53;5030047;28;20242;-61
2022/04/07 11:32:28;;;;;;;5.70;0.90;;;;;;;12.97;100.00;97534.50;5047676;28;20060;-61